createdAt,value
2023-05-22T00:00:16.590Z,15.85
2023-05-22T00:02:44.028Z,15.00
2023-05-22T00:05:14.859Z,14.73
2023-05-22T00:07:45.985Z,15.63
2023-05-22T00:10:12.766Z,15.52
2023-05-22T00:12:39.608Z,14.38
2023-05-22T00:15:06.723Z,15.43
2023-05-22T00:17:34.248Z,14.95
2023-05-22T00:20:07.249Z,16.05
2023-05-22T00:22:36.928Z,15.38
2023-05-22T00:25:05.107Z,15.98
2023-05-22T00:27:31.901Z,15.80
2023-05-22T00:29:58.991Z,16.05
2023-05-22T00:32:28.764Z,16.17
2023-05-22T00:34:55.731Z,15.95
2023-05-22T00:37:23.204Z,16.40
2023-05-22T00:39:49.949Z,14.73
2023-05-22T00:42:16.937Z,16.45
2023-05-22T00:44:43.636Z,16.13
2023-05-22T00:47:10.283Z,15.95
2023-05-22T00:49:36.890Z,16.23
2023-05-22T00:52:03.685Z,16.13
2023-05-22T00:54:32.014Z,15.93
2023-05-22T00:57:00.536Z,17.38
2023-05-22T00:59:28.046Z,17.95
2023-05-22T01:01:55.504Z,16.73
2023-05-22T01:04:22.184Z,17.77
2023-05-22T01:06:49.455Z,16.08
2023-05-22T01:09:16.144Z,17.40
2023-05-22T01:12:04.128Z,16.27
2023-05-22T01:14:44.238Z,15.73
2023-05-22T01:17:22.922Z,17.02
2023-05-22T01:20:10.768Z,15.98
2023-05-22T01:22:43.561Z,15.77
2023-05-22T01:25:35.809Z,14.57
2023-05-22T01:28:30.480Z,19.15
2023-05-22T01:31:14.310Z,13.63
2023-05-22T01:33:52.983Z,15.60
2023-05-22T01:36:25.004Z,15.52
2023-05-22T01:38:53.117Z,15.65
2023-05-22T01:41:21.445Z,16.00
2023-05-22T01:43:48.081Z,15.98
2023-05-22T01:46:14.787Z,15.07
2023-05-22T01:48:41.643Z,15.55
2023-05-22T01:51:46.980Z,15.52
2023-05-22T01:54:24.865Z,14.65
2023-05-22T01:57:13.387Z,14.77
2023-05-22T01:59:49.532Z,15.18
2023-05-22T02:02:18.964Z,14.52
2023-05-22T02:04:49.794Z,15.45
2023-05-22T02:07:17.345Z,13.95
2023-05-22T02:09:45.435Z,15.23
2023-05-22T02:12:12.642Z,14.45
2023-05-22T02:14:39.726Z,14.32
2023-05-22T02:17:07.683Z,13.77
2023-05-22T02:19:36.009Z,14.75
2023-05-22T02:22:02.804Z,14.25
2023-05-22T02:24:32.681Z,14.43
2023-05-22T02:26:59.499Z,15.60
2023-05-22T02:29:26.142Z,14.30
2023-05-22T02:31:54.424Z,14.85
2023-05-22T02:34:21.404Z,14.40
2023-05-22T02:36:48.114Z,15.02
2023-05-22T02:39:15.096Z,14.93
2023-05-22T02:41:42.068Z,14.88
2023-05-22T02:44:08.741Z,14.35
2023-05-22T02:46:35.487Z,14.32
2023-05-22T02:49:03.215Z,14.52
2023-05-22T02:51:29.845Z,14.55
2023-05-22T02:53:56.531Z,14.40
2023-05-22T02:56:23.988Z,14.88
2023-05-22T02:58:50.706Z,13.98
2023-05-22T03:01:17.423Z,14.18
2023-05-22T03:03:44.338Z,15.02
2023-05-22T03:06:11.170Z,15.05
2023-05-22T03:08:41.630Z,14.10
2023-05-22T03:11:08.424Z,14.88
2023-05-22T03:13:36.309Z,15.52
2023-05-22T03:16:03.029Z,14.80
2023-05-22T03:18:30.809Z,15.48
2023-05-22T03:20:57.433Z,15.60
2023-05-22T03:23:25.169Z,15.57
2023-05-22T03:25:52.359Z,16.70
2023-05-22T03:28:20.026Z,15.55
2023-05-22T03:30:47.513Z,16.33
2023-05-22T03:33:20.311Z,15.93
2023-05-22T03:35:47.144Z,15.50
2023-05-22T03:38:14.041Z,15.15
2023-05-22T03:40:41.262Z,16.13
2023-05-22T03:43:09.160Z,15.27
2023-05-22T03:45:35.890Z,15.38
2023-05-22T03:48:03.997Z,15.88
2023-05-22T03:50:30.912Z,15.80
2023-05-22T03:52:57.585Z,15.80
2023-05-22T03:55:24.169Z,16.02
2023-05-22T03:57:50.774Z,16.73
2023-05-22T04:00:19.642Z,16.40
2023-05-22T04:02:46.785Z,16.58
2023-05-22T04:05:13.651Z,16.55
2023-05-22T04:07:40.388Z,16.45
2023-05-22T04:10:07.361Z,16.52
2023-05-22T04:12:34.380Z,16.55
2023-05-22T04:15:01.466Z,15.95
2023-05-22T04:17:35.662Z,16.48
2023-05-22T04:20:05.266Z,16.10
2023-05-22T04:22:33.268Z,16.58
2023-05-22T04:25:00.028Z,15.30
2023-05-22T04:27:26.997Z,14.80
2023-05-22T04:29:53.717Z,15.10
2023-05-22T04:32:21.824Z,15.77
2023-05-22T04:34:52.293Z,15.48
2023-05-22T04:37:20.103Z,16.27
2023-05-22T04:39:46.983Z,16.33
2023-05-22T04:42:14.495Z,15.85
2023-05-22T04:44:41.837Z,16.35
2023-05-22T04:47:14.311Z,15.20
2023-05-22T04:49:43.584Z,15.38
2023-05-22T04:52:11.553Z,14.57
2023-05-22T04:54:38.909Z,14.65
2023-05-22T04:57:06.015Z,13.48
2023-05-22T04:59:37.825Z,14.45
2023-05-22T05:02:05.451Z,13.82
2023-05-22T05:04:32.868Z,13.90
2023-05-22T05:06:59.554Z,14.15
2023-05-22T05:09:26.780Z,13.82
2023-05-22T05:11:53.508Z,14.38
2023-05-22T05:14:20.383Z,14.10
2023-05-22T05:16:47.493Z,14.18
2023-05-22T05:19:15.521Z,14.15
2023-05-22T05:21:42.664Z,14.85
2023-05-22T05:24:09.655Z,15.43
2023-05-22T05:26:36.313Z,15.00
2023-05-22T05:29:03.166Z,14.90
2023-05-22T05:31:39.770Z,15.30
2023-05-22T05:34:25.376Z,14.75
2023-05-22T05:36:57.771Z,16.58
2023-05-22T05:39:25.806Z,16.02
2023-05-22T05:41:52.506Z,15.88
2023-05-22T05:44:19.141Z,17.52
2023-05-22T05:46:46.310Z,16.23
2023-05-22T05:49:15.381Z,16.30
2023-05-22T05:51:42.895Z,15.68
2023-05-22T05:54:10.952Z,16.20
2023-05-22T05:56:38.014Z,16.00
2023-05-22T05:59:05.040Z,16.73
2023-05-22T06:01:51.994Z,17.30
2023-05-22T06:04:23.397Z,16.98
2023-05-22T06:06:52.595Z,17.25
2023-05-22T06:09:19.211Z,16.83
2023-05-22T06:12:12.872Z,17.83
2023-05-22T06:14:42.801Z,17.08
2023-05-22T06:17:09.941Z,18.05
2023-05-22T06:19:39.087Z,17.42
2023-05-22T06:22:06.553Z,17.95
2023-05-22T06:24:34.534Z,18.50
2023-05-22T06:27:06.959Z,16.92
2023-05-22T06:29:34.298Z,17.75
2023-05-22T06:32:01.160Z,17.50
2023-05-22T06:34:29.701Z,16.58
2023-05-22T06:37:00.461Z,18.13
2023-05-22T06:39:32.870Z,18.02
2023-05-22T06:42:08.769Z,16.63
2023-05-22T06:44:54.067Z,16.33
2023-05-22T06:47:23.884Z,17.13
2023-05-22T06:49:50.883Z,17.45
2023-05-22T06:52:17.577Z,16.98
2023-05-22T06:54:45.079Z,16.65
2023-05-22T06:57:14.757Z,15.73
2023-05-22T06:59:41.899Z,16.38
2023-05-22T07:02:34.603Z,17.27
2023-05-22T07:05:24.050Z,16.65
2023-05-22T07:07:56.995Z,17.52
2023-05-22T07:10:27.450Z,19.67
2023-05-22T07:12:54.544Z,20.27
2023-05-22T07:15:21.453Z,21.40
2023-05-22T07:17:52.570Z,21.90
2023-05-22T07:20:19.350Z,21.48
2023-05-22T07:22:58.428Z,23.48
2023-05-22T07:25:25.529Z,21.05
2023-05-22T07:27:52.393Z,22.20
2023-05-22T07:30:21.419Z,21.63
2023-05-22T07:32:49.296Z,22.60
2023-05-22T07:35:16.362Z,22.23
2023-05-22T07:37:43.132Z,21.27
2023-05-22T07:40:11.093Z,22.67
2023-05-22T07:42:38.394Z,21.58
2023-05-22T07:45:07.088Z,22.90
2023-05-22T07:47:33.767Z,24.23
2023-05-22T07:50:04.151Z,23.08
2023-05-22T07:52:32.851Z,28.05
2023-05-22T07:55:00.018Z,27.65
2023-05-22T07:57:29.622Z,25.55
2023-05-22T08:00:00.345Z,25.58
2023-05-22T08:02:27.157Z,26.35
2023-05-22T08:04:53.962Z,25.55
2023-05-22T08:07:20.677Z,25.55
2023-05-22T08:09:47.383Z,25.17
2023-05-22T08:12:14.035Z,23.92
2023-05-22T08:14:41.215Z,24.48
2023-05-22T08:17:08.280Z,22.92
2023-05-22T08:19:35.103Z,21.35
2023-05-22T08:22:02.015Z,20.98
2023-05-22T08:24:30.433Z,21.88
2023-05-22T08:26:58.551Z,21.85
2023-05-22T08:29:25.279Z,21.52
2023-05-22T08:31:53.946Z,22.15
2023-05-22T08:34:20.790Z,22.40
2023-05-22T08:36:47.444Z,20.75
2023-05-22T08:39:14.466Z,21.25
2023-05-22T08:41:43.754Z,20.25
2023-05-22T08:44:13.415Z,21.23
2023-05-22T08:46:45.301Z,21.90
2023-05-22T08:49:13.112Z,21.40
2023-05-22T08:51:42.327Z,22.55
2023-05-22T08:54:09.835Z,23.45
2023-05-22T08:56:39.863Z,21.52
2023-05-22T08:59:12.682Z,21.08
2023-05-22T09:01:39.578Z,20.65
2023-05-22T09:04:06.315Z,20.73
2023-05-22T09:06:33.127Z,21.33
2023-05-22T09:08:59.858Z,19.45
2023-05-22T09:11:26.570Z,19.67
2023-05-22T09:13:53.177Z,17.73
2023-05-22T09:16:19.934Z,16.83
2023-05-22T09:18:46.752Z,17.73
2023-05-22T09:21:28.759Z,15.93
2023-05-22T09:24:01.131Z,16.27
2023-05-22T09:26:29.241Z,16.33
2023-05-22T09:28:57.006Z,15.43
2023-05-22T09:31:23.672Z,16.48
2023-05-22T09:33:50.421Z,16.63
2023-05-22T09:36:17.209Z,15.60
2023-05-22T09:38:43.832Z,16.33
2023-05-22T09:41:10.475Z,16.15
2023-05-22T09:43:37.178Z,17.17
2023-05-22T09:46:06.776Z,16.55
2023-05-22T09:48:36.654Z,17.35
2023-05-22T09:51:03.775Z,17.40
2023-05-22T09:53:32.945Z,19.13
2023-05-22T09:56:00.296Z,17.85
2023-05-22T09:58:31.108Z,18.23
2023-05-22T10:00:58.234Z,18.55
2023-05-22T10:03:27.411Z,16.98
2023-05-22T10:05:55.750Z,17.70
2023-05-22T10:08:26.098Z,17.38
2023-05-22T10:10:55.511Z,17.60
2023-05-22T10:13:22.339Z,15.55
2023-05-22T10:15:51.061Z,18.13
2023-05-22T10:18:17.953Z,16.35
2023-05-22T10:20:46.944Z,14.93
2023-05-22T10:23:16.231Z,14.15
2023-05-22T10:25:43.806Z,14.27
2023-05-22T10:28:12.040Z,13.18
2023-05-22T10:30:55.911Z,13.07
2023-05-22T10:33:25.077Z,13.63
2023-05-22T10:36:08.026Z,12.05
2023-05-22T10:38:54.212Z,13.07
2023-05-22T10:41:21.715Z,13.25
2023-05-22T10:43:52.096Z,13.55
2023-05-22T10:46:19.024Z,14.20
2023-05-22T10:48:49.967Z,13.00
2023-05-22T10:51:21.576Z,13.48
2023-05-22T10:53:55.604Z,13.20
2023-05-22T10:56:25.081Z,12.80
2023-05-22T10:58:56.724Z,13.88
2023-05-22T11:01:26.054Z,12.73
2023-05-22T11:04:01.786Z,13.00
2023-05-22T11:06:31.516Z,12.27
2023-05-22T11:08:59.155Z,12.15
2023-05-22T11:11:26.932Z,12.07
2023-05-22T11:13:59.181Z,13.23
2023-05-22T11:16:25.957Z,13.82
2023-05-22T11:19:21.251Z,12.65
2023-05-22T11:21:49.054Z,11.65
2023-05-22T11:24:17.915Z,11.38
2023-05-22T11:26:44.932Z,12.02
2023-05-22T11:29:11.757Z,13.43
2023-05-22T11:31:39.130Z,12.93
2023-05-22T11:34:05.896Z,13.00
2023-05-22T11:36:32.761Z,12.85
2023-05-22T11:39:02.200Z,12.55
2023-05-22T11:41:34.996Z,11.73
2023-05-22T11:44:02.034Z,12.05
2023-05-22T11:46:30.173Z,11.73
2023-05-22T11:48:57.465Z,11.80
2023-05-22T11:51:24.269Z,12.35
2023-05-22T11:53:51.101Z,12.10
2023-05-22T11:56:24.418Z,11.48
2023-05-22T11:58:51.874Z,11.90
2023-05-22T12:01:18.681Z,11.45
2023-05-22T12:03:45.443Z,10.80
2023-05-22T12:06:13.975Z,11.82
2023-05-22T12:08:42.788Z,11.85
2023-05-22T12:11:11.706Z,11.00
2023-05-22T12:13:39.224Z,11.50
2023-05-22T12:16:19.190Z,10.88
2023-05-22T12:18:46.267Z,10.25
2023-05-22T12:21:13.214Z,11.73
2023-05-22T12:23:49.268Z,11.18
2023-05-22T12:26:16.289Z,10.10
2023-05-22T12:28:43.266Z,9.73
2023-05-22T12:31:10.060Z,9.50
2023-05-22T12:33:39.575Z,10.68
2023-05-22T12:36:10.379Z,10.27
2023-05-22T12:38:39.290Z,9.80
2023-05-22T12:41:06.341Z,10.20
2023-05-22T12:43:33.181Z,10.20
2023-05-22T12:46:01.049Z,10.65
2023-05-22T12:48:30.266Z,10.00
2023-05-22T12:50:56.961Z,9.68
2023-05-22T12:53:23.758Z,10.40
2023-05-22T12:55:50.434Z,10.27
2023-05-22T12:58:17.222Z,10.75
2023-05-22T13:00:43.873Z,10.10
2023-05-22T13:03:12.069Z,11.13
2023-05-22T13:05:38.935Z,10.63
2023-05-22T13:08:05.883Z,9.80
2023-05-22T13:10:33.047Z,10.73
2023-05-22T13:12:59.755Z,10.27
2023-05-22T13:15:29.401Z,10.35
2023-05-22T13:17:56.887Z,10.80
2023-05-22T13:20:23.780Z,10.00
2023-05-22T13:22:50.458Z,10.80
2023-05-22T13:25:19.114Z,9.82
2023-05-22T13:27:46.337Z,10.30
2023-05-22T13:30:13.753Z,10.30
2023-05-22T13:32:40.434Z,9.68
2023-05-22T13:35:07.656Z,8.85
2023-05-22T13:37:34.322Z,10.30
2023-05-22T13:40:01.025Z,10.48
2023-05-22T13:42:27.724Z,10.32
2023-05-22T13:44:54.439Z,10.30
2023-05-22T13:47:22.888Z,11.02
2023-05-22T13:49:49.709Z,10.68
2023-05-22T13:52:16.406Z,10.88
2023-05-22T13:54:43.355Z,11.20
2023-05-22T13:57:10.001Z,11.55
2023-05-22T13:59:36.705Z,10.45
2023-05-22T14:02:03.442Z,10.70
2023-05-22T14:04:30.370Z,11.32
2023-05-22T14:06:57.027Z,10.77
2023-05-22T14:09:23.648Z,10.55
2023-05-22T14:11:51.118Z,10.75
2023-05-22T14:14:23.632Z,10.68
2023-05-22T14:16:51.575Z,10.57
2023-05-22T14:19:19.302Z,11.60
2023-05-22T14:21:48.003Z,11.82
2023-05-22T14:24:14.776Z,12.10
2023-05-22T14:26:41.696Z,12.75
2023-05-22T14:29:08.492Z,12.18
2023-05-22T14:31:51.429Z,12.80
2023-05-22T14:34:18.716Z,12.55
2023-05-22T14:36:45.354Z,14.18
2023-05-22T14:39:12.006Z,14.05
2023-05-22T14:41:38.614Z,13.40
2023-05-22T14:44:05.321Z,13.15
2023-05-22T14:46:31.991Z,13.48
2023-05-22T14:48:58.741Z,12.95
2023-05-22T14:51:25.467Z,12.18
2023-05-22T14:53:52.137Z,12.25
2023-05-22T14:56:18.892Z,11.70
2023-05-22T14:58:45.898Z,11.05
2023-05-22T15:01:12.545Z,12.20
2023-05-22T15:03:39.200Z,10.25
2023-05-22T15:06:06.049Z,10.35
2023-05-22T15:08:32.701Z,10.15
2023-05-22T15:10:59.339Z,9.63
2023-05-22T15:13:26.004Z,9.18
2023-05-22T15:15:52.705Z,9.35
2023-05-22T15:18:20.598Z,8.65
2023-05-22T15:20:47.268Z,9.60
2023-05-22T15:23:13.979Z,10.23
2023-05-22T15:25:41.146Z,10.65
2023-05-22T15:28:08.015Z,10.30
2023-05-22T15:30:38.890Z,10.82
2023-05-22T15:33:05.697Z,10.38
2023-05-22T15:35:32.511Z,10.70
2023-05-22T15:37:59.325Z,10.75
2023-05-22T15:40:26.204Z,10.85
2023-05-22T15:42:53.496Z,11.13
2023-05-22T15:45:21.192Z,8.13
2023-05-22T15:47:48.166Z,8.27
2023-05-22T15:50:14.790Z,7.63
2023-05-22T15:52:41.480Z,7.55
2023-05-22T15:55:08.435Z,8.07
2023-05-22T15:57:35.114Z,7.80
2023-05-22T16:00:01.836Z,8.10
2023-05-22T16:02:31.140Z,7.60
2023-05-22T16:04:57.856Z,7.50
2023-05-22T16:07:24.464Z,7.68
2023-05-22T16:09:51.324Z,8.45
2023-05-22T16:12:18.476Z,7.55
2023-05-22T16:14:45.155Z,7.10
2023-05-22T16:17:11.746Z,8.10
2023-05-22T16:19:38.512Z,7.55
2023-05-22T16:22:07.801Z,6.53
2023-05-22T16:24:36.774Z,7.35
2023-05-22T16:27:03.635Z,8.05
2023-05-22T16:29:32.407Z,7.93
2023-05-22T16:31:59.212Z,7.90
2023-05-22T16:34:25.925Z,8.52
2023-05-22T16:36:52.632Z,8.60
2023-05-22T16:39:19.321Z,9.45
2023-05-22T16:41:45.967Z,9.20
2023-05-22T16:44:12.792Z,9.15
2023-05-22T16:46:39.514Z,8.20
2023-05-22T16:49:06.887Z,8.98
2023-05-22T16:51:33.641Z,9.82
2023-05-22T16:54:01.307Z,11.27
2023-05-22T16:56:28.100Z,10.57
2023-05-22T16:58:54.851Z,10.30
2023-05-22T17:01:22.108Z,9.82
2023-05-22T17:03:48.937Z,9.93
2023-05-22T17:06:15.635Z,9.10
2023-05-22T17:08:42.399Z,10.40
2023-05-22T17:11:09.015Z,11.18
2023-05-22T17:13:36.205Z,11.20
2023-05-22T17:16:02.959Z,10.60
2023-05-22T17:18:30.103Z,11.15
2023-05-22T17:20:57.391Z,11.77
2023-05-22T17:23:24.096Z,11.55
2023-05-22T17:25:51.269Z,10.95
2023-05-22T17:28:17.984Z,11.57
2023-05-22T17:30:46.018Z,12.30
2023-05-22T17:33:13.841Z,12.55
2023-05-22T17:35:42.996Z,12.07
2023-05-22T17:38:10.002Z,14.02
2023-05-22T17:40:45.063Z,13.25
2023-05-22T17:43:13.501Z,13.18
2023-05-22T17:45:40.377Z,13.13
2023-05-22T17:48:07.600Z,13.15
2023-05-22T17:50:34.297Z,11.95
2023-05-22T17:53:01.021Z,12.57
2023-05-22T17:55:27.703Z,13.85
2023-05-22T17:57:54.573Z,14.20
2023-05-22T18:00:21.358Z,12.88
2023-05-22T18:02:48.049Z,13.93
2023-05-22T18:05:14.882Z,12.45
2023-05-22T18:07:41.492Z,14.20
2023-05-22T18:10:08.609Z,13.07
2023-05-22T18:12:37.997Z,13.85
2023-05-22T18:15:05.286Z,14.18
2023-05-22T18:17:32.463Z,14.90
2023-05-22T18:20:00.902Z,13.07
2023-05-22T18:22:27.611Z,14.18
2023-05-22T18:24:54.371Z,15.88
2023-05-22T18:27:21.317Z,15.20
2023-05-22T18:29:48.060Z,15.02
2023-05-22T18:32:14.735Z,15.02
2023-05-22T18:34:41.875Z,15.18
2023-05-22T18:37:08.637Z,14.32
2023-05-22T18:39:35.383Z,14.45
2023-05-22T18:42:02.102Z,14.05
2023-05-22T18:44:28.837Z,15.27
2023-05-22T18:46:55.502Z,16.38
2023-05-22T18:49:22.298Z,15.73
2023-05-22T18:51:49.172Z,16.08
2023-05-22T18:54:16.976Z,16.65
2023-05-22T18:56:43.707Z,16.38
2023-05-22T18:59:10.414Z,16.35
2023-05-22T19:01:37.093Z,16.20
2023-05-22T19:04:05.996Z,16.77
2023-05-22T19:06:33.131Z,17.25
2023-05-22T19:08:59.863Z,15.93
2023-05-22T19:11:27.364Z,18.02
2023-05-22T19:13:54.797Z,17.02
2023-05-22T19:16:21.544Z,18.30
2023-05-22T19:18:48.292Z,16.75
2023-05-22T19:21:14.959Z,17.95
2023-05-22T19:23:42.814Z,18.50
2023-05-22T19:26:09.570Z,17.30
2023-05-22T19:28:36.361Z,16.33
2023-05-22T19:31:03.232Z,16.55
2023-05-22T19:33:31.229Z,15.95
2023-05-22T19:35:58.825Z,15.35
2023-05-22T19:38:26.940Z,15.75
2023-05-22T19:40:53.811Z,14.55
2023-05-22T19:43:21.439Z,15.43
2023-05-22T19:45:48.373Z,17.27
2023-05-22T19:48:15.006Z,16.58
2023-05-22T19:50:42.004Z,17.77
2023-05-22T19:53:10.694Z,14.75
2023-05-22T19:55:37.429Z,15.45
2023-05-22T19:58:04.074Z,14.20
2023-05-22T20:00:31.755Z,13.40
2023-05-22T20:02:58.558Z,14.05
2023-05-22T20:05:25.955Z,12.68
2023-05-22T20:07:52.719Z,13.18
2023-05-22T20:10:19.557Z,12.18
2023-05-22T20:12:47.106Z,12.40
2023-05-22T20:15:17.777Z,11.95
2023-05-22T20:17:47.316Z,12.63
2023-05-22T20:20:14.135Z,12.05
2023-05-22T20:22:41.009Z,11.43
2023-05-22T20:25:08.789Z,11.05
2023-05-22T20:27:35.630Z,10.52
2023-05-22T20:30:02.502Z,9.75
2023-05-22T20:32:30.678Z,9.50
2023-05-22T20:34:57.384Z,9.80
2023-05-22T20:37:24.109Z,8.63
2023-05-22T20:39:51.793Z,8.20
2023-05-22T20:42:18.679Z,7.60
2023-05-22T20:44:46.225Z,7.78
2023-05-22T20:47:13.487Z,8.00
2023-05-22T20:49:40.468Z,7.70
2023-05-22T20:52:07.248Z,8.05
2023-05-22T20:54:34.835Z,7.75
2023-05-22T20:57:02.053Z,8.07
2023-05-22T20:59:29.051Z,7.43
2023-05-22T21:01:57.281Z,7.57
2023-05-22T21:04:24.034Z,7.75
2023-05-22T21:06:51.362Z,7.97
2023-05-22T21:09:18.119Z,7.50
2023-05-22T21:11:44.784Z,7.53
2023-05-22T21:14:11.450Z,7.68
2023-05-22T21:16:39.562Z,8.00
2023-05-22T21:19:07.253Z,7.40
2023-05-22T21:21:35.778Z,7.30
2023-05-22T21:24:02.782Z,6.95
2023-05-22T21:26:29.483Z,6.80
2023-05-22T21:28:56.570Z,6.97
2023-05-22T21:31:23.312Z,7.35
2023-05-22T21:33:50.048Z,7.25
2023-05-22T21:36:16.686Z,7.53
2023-05-22T21:38:46.041Z,7.00
2023-05-22T21:41:13.545Z,7.47
2023-05-22T21:43:40.284Z,6.82
2023-05-22T21:46:07.061Z,7.30
2023-05-22T21:48:33.987Z,6.85
2023-05-22T21:51:00.630Z,7.00
2023-05-22T21:53:27.313Z,7.07
2023-05-22T21:55:53.965Z,6.57
2023-05-22T21:58:20.722Z,7.05
2023-05-22T22:00:47.725Z,6.47
2023-05-22T22:03:14.429Z,6.63
2023-05-22T22:05:41.195Z,6.75
2023-05-22T22:08:07.869Z,7.15
2023-05-22T22:10:34.548Z,7.35
2023-05-22T22:13:01.603Z,7.45
2023-05-22T22:15:28.283Z,6.93
2023-05-22T22:17:59.481Z,6.60
2023-05-22T22:20:42.375Z,6.32
2023-05-22T22:23:10.651Z,6.47
2023-05-22T22:25:38.977Z,7.22
2023-05-22T22:28:05.958Z,6.38
2023-05-22T22:30:32.698Z,7.18
2023-05-22T22:32:59.610Z,7.25
2023-05-22T22:35:26.443Z,6.85
2023-05-22T22:37:53.098Z,7.68
2023-05-22T22:40:19.735Z,6.30
2023-05-22T22:42:46.369Z,6.95
2023-05-22T22:45:14.775Z,7.60
2023-05-22T22:47:41.520Z,7.22
2023-05-22T22:50:09.905Z,7.03
2023-05-22T22:52:37.747Z,7.63
2023-05-22T22:55:06.637Z,6.90
2023-05-22T22:57:33.280Z,7.38
2023-05-22T22:59:59.955Z,7.10
2023-05-22T23:02:26.655Z,7.03
2023-05-22T23:04:53.452Z,7.07
2023-05-22T23:07:20.182Z,7.70
2023-05-22T23:09:46.815Z,8.05
2023-05-22T23:12:13.450Z,7.40
2023-05-22T23:14:40.161Z,7.40
2023-05-22T23:17:06.839Z,7.38
2023-05-22T23:19:33.543Z,7.82
2023-05-22T23:22:00.340Z,8.00
2023-05-22T23:24:27.035Z,7.32
2023-05-22T23:26:53.630Z,7.68
2023-05-22T23:29:20.305Z,7.97
2023-05-22T23:31:47.544Z,7.97
2023-05-22T23:34:14.287Z,8.40
2023-05-22T23:36:41.113Z,8.43
2023-05-22T23:39:07.877Z,8.25
2023-05-22T23:41:35.432Z,8.85
2023-05-22T23:44:02.370Z,8.73
2023-05-22T23:46:29.401Z,8.75
2023-05-22T23:48:56.727Z,8.13
2023-05-22T23:51:23.405Z,8.80
2023-05-22T23:53:50.091Z,8.60
2023-05-22T23:56:16.944Z,7.97
2023-05-22T23:58:43.754Z,9.13
